sensor_id;sensor_type;location;lat;lon;timestamp;P1;durP1;ratioP1;P2;durP2;ratioP2
20336;SDS011;10326;53.660;10.200;2023-08-24T00:02:03;5.05;;;2.78;;
20336;SDS011;10326;53.660;10.200;2023-08-24T00:04:34;6.30;;;2.88;;
20336;SDS011;10326;53.660;10.200;2023-08-24T00:07:01;3.20;;;2.33;;
20336;SDS011;10326;53.660;10.200;2023-08-24T00:09:43;3.45;;;2.38;;
20336;SDS011;10326;53.660;10.200;2023-08-24T00:12:24;3.05;;;2.35;;
20336;SDS011;10326;53.660;10.200;2023-08-24T00:15:03;7.47;;;3.00;;
20336;SDS011;10326;53.660;10.200;2023-08-24T00:17:37;14.45;;;3.10;;
20336;SDS011;10326;53.660;10.200;2023-08-24T00:20:06;6.57;;;2.92;;
20336;SDS011;10326;53.660;10.200;2023-08-24T00:22:36;3.00;;;2.33;;
20336;SDS011;10326;53.660;10.200;2023-08-24T00:25:08;5.13;;;2.95;;
20336;SDS011;10326;53.660;10.200;2023-08-24T00:27:35;3.17;;;2.80;;
20336;SDS011;10326;53.660;10.200;2023-08-24T00:30:03;3.92;;;2.60;;
20336;SDS011;10326;53.660;10.200;2023-08-24T00:32:33;3.70;;;2.70;;
20336;SDS011;10326;53.660;10.200;2023-08-24T00:35:01;2.65;;;2.40;;
20336;SDS011;10326;53.660;10.200;2023-08-24T00:37:36;8.00;;;3.00;;
20336;SDS011;10326;53.660;10.200;2023-08-24T00:40:49;3.60;;;2.70;;
20336;SDS011;10326;53.660;10.200;2023-08-24T00:44:27;4.10;;;2.35;;
20336;SDS011;10326;53.660;10.200;2023-08-24T00:46:54;3.88;;;2.42;;
20336;SDS011;10326;53.660;10.200;2023-08-24T00:49:22;4.55;;;2.70;;
20336;SDS011;10326;53.660;10.200;2023-08-24T00:52:09;3.38;;;2.72;;
20336;SDS011;10326;53.660;10.200;2023-08-24T00:54:50;8.70;;;3.13;;
20336;SDS011;10326;53.660;10.200;2023-08-24T00:57:47;9.77;;;2.83;;
20336;SDS011;10326;53.660;10.200;2023-08-24T01:01:02;3.80;;;2.60;;
20336;SDS011;10326;53.660;10.200;2023-08-24T01:04:00;5.07;;;3.10;;
20336;SDS011;10326;53.660;10.200;2023-08-24T01:06:47;4.40;;;3.08;;
20336;SDS011;10326;53.660;10.200;2023-08-24T01:09:58;5.80;;;2.80;;
20336;SDS011;10326;53.660;10.200;2023-08-24T01:13:38;9.07;;;3.20;;
20336;SDS011;10326;53.660;10.200;2023-08-24T01:16:46;4.32;;;3.08;;
20336;SDS011;10326;53.660;10.200;2023-08-24T01:19:21;4.28;;;3.17;;
20336;SDS011;10326;53.660;10.200;2023-08-24T01:22:02;3.53;;;3.22;;
20336;SDS011;10326;53.660;10.200;2023-08-24T01:24:52;4.95;;;3.50;;
20336;SDS011;10326;53.660;10.200;2023-08-24T01:27:33;4.85;;;3.35;;
20336;SDS011;10326;53.660;10.200;2023-08-24T01:30:02;3.30;;;3.00;;
20336;SDS011;10326;53.660;10.200;2023-08-24T01:32:38;3.95;;;2.70;;
20336;SDS011;10326;53.660;10.200;2023-08-24T01:36:05;4.95;;;2.90;;
20336;SDS011;10326;53.660;10.200;2023-08-24T01:39:12;7.93;;;3.22;;
20336;SDS011;10326;53.660;10.200;2023-08-24T01:42:09;8.55;;;3.05;;
20336;SDS011;10326;53.660;10.200;2023-08-24T01:44:45;4.93;;;3.13;;
20336;SDS011;10326;53.660;10.200;2023-08-24T01:47:22;5.85;;;3.00;;
20336;SDS011;10326;53.660;10.200;2023-08-24T01:50:02;6.68;;;3.15;;
20336;SDS011;10326;53.660;10.200;2023-08-24T01:53:09;3.97;;;2.67;;
20336;SDS011;10326;53.660;10.200;2023-08-24T01:59:40;3.42;;;2.60;;
20336;SDS011;10326;53.660;10.200;2023-08-24T02:02:11;3.60;;;2.50;;
20336;SDS011;10326;53.660;10.200;2023-08-24T02:04:38;2.97;;;2.55;;
20336;SDS011;10326;53.660;10.200;2023-08-24T02:07:07;2.72;;;2.53;;
20336;SDS011;10326;53.660;10.200;2023-08-24T02:09:35;3.35;;;2.45;;
20336;SDS011;10326;53.660;10.200;2023-08-24T02:12:02;21.50;;;3.92;;
20336;SDS011;10326;53.660;10.200;2023-08-24T02:14:31;9.25;;;2.97;;
20336;SDS011;10326;53.660;10.200;2023-08-24T02:17:00;5.32;;;2.50;;
20336;SDS011;10326;53.660;10.200;2023-08-24T02:19:32;7.82;;;2.83;;
20336;SDS011;10326;53.660;10.200;2023-08-24T02:22:15;5.15;;;3.22;;
20336;SDS011;10326;53.660;10.200;2023-08-24T02:24:42;4.60;;;2.80;;
20336;SDS011;10326;53.660;10.200;2023-08-24T02:30:41;2.85;;;2.60;;
20336;SDS011;10326;53.660;10.200;2023-08-24T02:33:09;4.80;;;2.92;;
20336;SDS011;10326;53.660;10.200;2023-08-24T02:35:37;7.88;;;3.22;;
20336;SDS011;10326;53.660;10.200;2023-08-24T02:38:04;8.77;;;3.35;;
20336;SDS011;10326;53.660;10.200;2023-08-24T02:40:32;10.15;;;3.22;;
20336;SDS011;10326;53.660;10.200;2023-08-24T02:42:59;5.05;;;2.97;;
20336;SDS011;10326;53.660;10.200;2023-08-24T02:45:27;7.13;;;2.90;;
20336;SDS011;10326;53.660;10.200;2023-08-24T02:48:01;7.43;;;2.75;;
20336;SDS011;10326;53.660;10.200;2023-08-24T02:51:03;15.35;;;3.30;;
20336;SDS011;10326;53.660;10.200;2023-08-24T02:54:34;3.95;;;2.75;;
20336;SDS011;10326;53.660;10.200;2023-08-24T02:57:23;7.50;;;3.10;;
20336;SDS011;10326;53.660;10.200;2023-08-24T02:59:56;6.22;;;2.67;;
20336;SDS011;10326;53.660;10.200;2023-08-24T03:02:34;4.35;;;2.72;;
20336;SDS011;10326;53.660;10.200;2023-08-24T03:05:15;5.57;;;2.72;;
20336;SDS011;10326;53.660;10.200;2023-08-24T03:07:42;4.80;;;2.50;;
20336;SDS011;10326;53.660;10.200;2023-08-24T03:10:27;3.25;;;2.50;;
20336;SDS011;10326;53.660;10.200;2023-08-24T03:12:54;3.50;;;2.88;;
20336;SDS011;10326;53.660;10.200;2023-08-24T03:15:21;3.65;;;2.75;;
20336;SDS011;10326;53.660;10.200;2023-08-24T03:17:49;4.53;;;2.58;;
20336;SDS011;10326;53.660;10.200;2023-08-24T03:20:19;3.38;;;2.75;;
20336;SDS011;10326;53.660;10.200;2023-08-24T03:22:50;6.65;;;3.08;;
20336;SDS011;10326;53.660;10.200;2023-08-24T03:25:19;2.97;;;2.35;;
20336;SDS011;10326;53.660;10.200;2023-08-24T03:27:46;7.90;;;2.88;;
20336;SDS011;10326;53.660;10.200;2023-08-24T03:30:14;3.25;;;2.72;;
20336;SDS011;10326;53.660;10.200;2023-08-24T03:32:41;3.15;;;2.50;;
20336;SDS011;10326;53.660;10.200;2023-08-24T03:35:08;3.22;;;2.80;;
20336;SDS011;10326;53.660;10.200;2023-08-24T03:37:41;2.60;;;2.40;;
20336;SDS011;10326;53.660;10.200;2023-08-24T03:40:09;3.05;;;2.85;;
20336;SDS011;10326;53.660;10.200;2023-08-24T03:42:44;4.88;;;2.92;;
20336;SDS011;10326;53.660;10.200;2023-08-24T03:45:43;11.10;;;3.25;;
20336;SDS011;10326;53.660;10.200;2023-08-24T03:48:17;4.70;;;2.80;;
20336;SDS011;10326;53.660;10.200;2023-08-24T03:50:44;5.80;;;2.70;;
20336;SDS011;10326;53.660;10.200;2023-08-24T03:53:14;3.00;;;2.40;;
20336;SDS011;10326;53.660;10.200;2023-08-24T03:55:41;2.97;;;2.67;;
20336;SDS011;10326;53.660;10.200;2023-08-24T03:58:09;2.60;;;2.40;;
20336;SDS011;10326;53.660;10.200;2023-08-24T04:00:37;2.70;;;2.50;;
20336;SDS011;10326;53.660;10.200;2023-08-24T04:03:06;4.63;;;3.33;;
20336;SDS011;10326;53.660;10.200;2023-08-24T04:05:34;3.22;;;2.92;;
20336;SDS011;10326;53.660;10.200;2023-08-24T04:08:01;3.20;;;2.63;;
20336;SDS011;10326;53.660;10.200;2023-08-24T04:10:31;3.35;;;2.88;;
20336;SDS011;10326;53.660;10.200;2023-08-24T04:13:20;3.00;;;2.70;;
20336;SDS011;10326;53.660;10.200;2023-08-24T04:15:47;4.03;;;2.70;;
20336;SDS011;10326;53.660;10.200;2023-08-24T04:18:16;5.15;;;2.70;;
20336;SDS011;10326;53.660;10.200;2023-08-24T04:20:43;8.50;;;2.85;;
20336;SDS011;10326;53.660;10.200;2023-08-24T04:23:12;5.78;;;3.05;;
20336;SDS011;10326;53.660;10.200;2023-08-24T04:25:45;2.47;;;2.10;;
20336;SDS011;10326;53.660;10.200;2023-08-24T04:28:30;2.60;;;1.65;;
20336;SDS011;10326;53.660;10.200;2023-08-24T04:30:57;1.95;;;1.70;;
20336;SDS011;10326;53.660;10.200;2023-08-24T04:33:24;1.73;;;1.63;;
20336;SDS011;10326;53.660;10.200;2023-08-24T04:35:54;1.95;;;1.80;;
20336;SDS011;10326;53.660;10.200;2023-08-24T04:38:22;4.05;;;1.92;;
20336;SDS011;10326;53.660;10.200;2023-08-24T04:40:53;2.00;;;1.60;;
20336;SDS011;10326;53.660;10.200;2023-08-24T04:43:22;1.70;;;1.60;;
20336;SDS011;10326;53.660;10.200;2023-08-24T04:45:52;2.08;;;1.98;;
20336;SDS011;10326;53.660;10.200;2023-08-24T04:48:22;3.00;;;2.80;;
20336;SDS011;10326;53.660;10.200;2023-08-24T04:50:52;3.03;;;2.83;;
20336;SDS011;10326;53.660;10.200;2023-08-24T04:53:21;4.20;;;2.95;;
20336;SDS011;10326;53.660;10.200;2023-08-24T04:55:49;2.70;;;2.50;;
20336;SDS011;10326;53.660;10.200;2023-08-24T04:58:18;2.60;;;2.40;;
20336;SDS011;10326;53.660;10.200;2023-08-24T05:00:45;2.67;;;2.47;;
20336;SDS011;10326;53.660;10.200;2023-08-24T05:03:21;2.63;;;2.42;;
20336;SDS011;10326;53.660;10.200;2023-08-24T05:05:48;3.35;;;2.30;;
20336;SDS011;10326;53.660;10.200;2023-08-24T05:08:16;2.33;;;2.13;;
20336;SDS011;10326;53.660;10.200;2023-08-24T05:10:44;2.50;;;2.30;;
20336;SDS011;10326;53.660;10.200;2023-08-24T05:17:19;3.70;;;3.22;;
20336;SDS011;10326;53.660;10.200;2023-08-24T05:20:12;4.07;;;3.67;;
20336;SDS011;10326;53.660;10.200;2023-08-24T05:24:43;5.53;;;5.03;;
20336;SDS011;10326;53.660;10.200;2023-08-24T05:27:26;4.57;;;3.50;;
20336;SDS011;10326;53.660;10.200;2023-08-24T05:31:02;5.07;;;4.20;;
20336;SDS011;10326;53.660;10.200;2023-08-24T05:33:55;8.30;;;5.20;;
20336;SDS011;10326;53.660;10.200;2023-08-24T05:37:50;5.40;;;4.90;;
20336;SDS011;10326;53.660;10.200;2023-08-24T05:40:17;5.10;;;4.60;;
20336;SDS011;10326;53.660;10.200;2023-08-24T05:42:44;5.60;;;4.90;;
20336;SDS011;10326;53.660;10.200;2023-08-24T05:45:12;5.25;;;4.43;;
20336;SDS011;10326;53.660;10.200;2023-08-24T05:47:41;5.65;;;4.93;;
20336;SDS011;10326;53.660;10.200;2023-08-24T05:50:18;5.60;;;4.90;;
20336;SDS011;10326;53.660;10.200;2023-08-24T05:52:46;6.43;;;4.95;;
20336;SDS011;10326;53.660;10.200;2023-08-24T06:10:18;4.47;;;3.97;;
20336;SDS011;10326;53.660;10.200;2023-08-24T06:13:01;5.25;;;4.35;;
20336;SDS011;10326;53.660;10.200;2023-08-24T06:15:39;4.88;;;4.18;;
20336;SDS011;10326;53.660;10.200;2023-08-24T06:18:15;4.25;;;3.85;;
20336;SDS011;10326;53.660;10.200;2023-08-24T06:28:54;3.70;;;3.30;;
20336;SDS011;10326;53.660;10.200;2023-08-24T06:34:56;4.20;;;2.40;;
20336;SDS011;10326;53.660;10.200;2023-08-24T06:45:39;1.90;;;1.77;;
20336;SDS011;10326;53.660;10.200;2023-08-24T06:48:07;2.28;;;1.80;;
20336;SDS011;10326;53.660;10.200;2023-08-24T06:50:37;2.08;;;1.80;;
20336;SDS011;10326;53.660;10.200;2023-08-24T06:53:05;2.25;;;1.48;;
20336;SDS011;10326;53.660;10.200;2023-08-24T06:55:33;2.90;;;1.75;;
20336;SDS011;10326;53.660;10.200;2023-08-24T07:11:49;1.73;;;1.30;;
20336;SDS011;10326;53.660;10.200;2023-08-24T07:14:16;3.08;;;1.55;;
20336;SDS011;10326;53.660;10.200;2023-08-24T07:16:45;3.83;;;1.75;;
20336;SDS011;10326;53.660;10.200;2023-08-24T07:19:21;4.90;;;1.40;;
20336;SDS011;10326;53.660;10.200;2023-08-24T08:29:23;2.45;;;1.17;;
20336;SDS011;10326;53.660;10.200;2023-08-24T08:31:55;2.10;;;1.20;;
20336;SDS011;10326;53.660;10.200;2023-08-24T08:34:24;2.63;;;1.52;;
20336;SDS011;10326;53.660;10.200;2023-08-24T08:36:59;1.77;;;1.23;;
20336;SDS011;10326;53.660;10.200;2023-08-24T08:39:34;2.50;;;1.20;;
20336;SDS011;10326;53.660;10.200;2023-08-24T08:42:06;2.58;;;1.38;;
20336;SDS011;10326;53.660;10.200;2023-08-24T08:44:55;2.25;;;1.20;;
20336;SDS011;10326;53.660;10.200;2023-08-24T08:47:53;2.22;;;1.75;;
20336;SDS011;10326;53.660;10.200;2023-08-24T08:50:35;1.60;;;1.30;;
20336;SDS011;10326;53.660;10.200;2023-08-24T08:53:06;1.85;;;1.20;;
20336;SDS011;10326;53.660;10.200;2023-08-24T09:09:14;1.63;;;1.17;;
20336;SDS011;10326;53.660;10.200;2023-08-24T09:11:47;2.33;;;1.15;;
20336;SDS011;10326;53.660;10.200;2023-08-24T09:14:15;2.72;;;1.20;;
20336;SDS011;10326;53.660;10.200;2023-08-24T09:16:43;2.00;;;1.20;;
20336;SDS011;10326;53.660;10.200;2023-08-24T09:23:19;2.53;;;2.33;;
20336;SDS011;10326;53.660;10.200;2023-08-24T09:25:48;3.13;;;1.90;;
20336;SDS011;10326;53.660;10.200;2023-08-24T09:28:21;2.65;;;1.50;;
20336;SDS011;10326;53.660;10.200;2023-08-24T09:44:44;2.65;;;1.50;;
20336;SDS011;10326;53.660;10.200;2023-08-24T09:47:12;2.95;;;1.58;;
20336;SDS011;10326;53.660;10.200;2023-08-24T09:53:37;2.72;;;1.90;;
20336;SDS011;10326;53.660;10.200;2023-08-24T09:59:52;2.58;;;1.70;;
20336;SDS011;10326;53.660;10.200;2023-08-24T10:06:17;2.58;;;1.77;;
20336;SDS011;10326;53.660;10.200;2023-08-24T10:08:50;5.13;;;2.13;;
20336;SDS011;10326;53.660;10.200;2023-08-24T10:11:25;2.83;;;1.90;;
20336;SDS011;10326;53.660;10.200;2023-08-24T10:13:58;3.13;;;1.75;;
20336;SDS011;10326;53.660;10.200;2023-08-24T10:16:34;2.08;;;1.73;;
20336;SDS011;10326;53.660;10.200;2023-08-24T10:19:03;2.13;;;1.90;;
20336;SDS011;10326;53.660;10.200;2023-08-24T10:21:46;3.75;;;1.92;;
20336;SDS011;10326;53.660;10.200;2023-08-24T10:24:28;2.03;;;1.83;;
20336;SDS011;10326;53.660;10.200;2023-08-24T10:28:39;3.45;;;2.00;;
20336;SDS011;10326;53.660;10.200;2023-08-24T10:33:54;3.35;;;2.30;;
20336;SDS011;10326;53.660;10.200;2023-08-24T10:36:23;2.75;;;1.92;;
20336;SDS011;10326;53.660;10.200;2023-08-24T10:38:53;5.15;;;2.50;;
20336;SDS011;10326;53.660;10.200;2023-08-24T10:41:25;3.08;;;2.05;;
20336;SDS011;10326;53.660;10.200;2023-08-24T10:43:53;3.83;;;2.53;;
20336;SDS011;10326;53.660;10.200;2023-08-24T10:46:34;5.00;;;2.75;;
20336;SDS011;10326;53.660;10.200;2023-08-24T10:49:04;3.75;;;2.33;;
20336;SDS011;10326;53.660;10.200;2023-08-24T10:51:34;3.85;;;2.50;;
20336;SDS011;10326;53.660;10.200;2023-08-24T10:54:11;4.70;;;2.47;;
20336;SDS011;10326;53.660;10.200;2023-08-24T11:00:59;2.95;;;2.33;;
20336;SDS011;10326;53.660;10.200;2023-08-24T11:03:32;2.92;;;2.20;;
20336;SDS011;10326;53.660;10.200;2023-08-24T11:10:31;3.72;;;2.53;;
20336;SDS011;10326;53.660;10.200;2023-08-24T11:13:06;4.75;;;2.40;;
20336;SDS011;10326;53.660;10.200;2023-08-24T11:15:37;5.18;;;2.20;;
20336;SDS011;10326;53.660;10.200;2023-08-24T11:18:15;4.50;;;2.05;;
20336;SDS011;10326;53.660;10.200;2023-08-24T11:20:49;3.95;;;2.75;;
20336;SDS011;10326;53.660;10.200;2023-08-24T11:26:17;3.20;;;2.38;;
20336;SDS011;10326;53.660;10.200;2023-08-24T11:28:03;4.22;;;2.20;;
20336;SDS011;10326;53.660;10.200;2023-08-24T11:30:31;2.20;;;2.00;;
20336;SDS011;10326;53.660;10.200;2023-08-24T11:33:04;2.10;;;1.90;;
20336;SDS011;10326;53.660;10.200;2023-08-24T11:36:53;2.78;;;1.98;;
20336;SDS011;10326;53.660;10.200;2023-08-24T11:44:01;3.10;;;2.30;;
20336;SDS011;10326;53.660;10.200;2023-08-24T11:46:46;3.35;;;2.50;;
20336;SDS011;10326;53.660;10.200;2023-08-24T11:49:49;4.78;;;2.55;;
20336;SDS011;10326;53.660;10.200;2023-08-24T11:56:12;2.80;;;2.58;;
20336;SDS011;10326;53.660;10.200;2023-08-24T12:03:05;2.42;;;1.70;;
20336;SDS011;10326;53.660;10.200;2023-08-24T12:05:51;3.30;;;2.10;;
20336;SDS011;10326;53.660;10.200;2023-08-24T12:11:21;2.50;;;2.30;;
20336;SDS011;10326;53.660;10.200;2023-08-24T12:13:51;2.42;;;1.92;;
20336;SDS011;10326;53.660;10.200;2023-08-24T12:23:30;3.03;;;2.03;;
20336;SDS011;10326;53.660;10.200;2023-08-24T12:25:59;3.05;;;1.83;;
20336;SDS011;10326;53.660;10.200;2023-08-24T12:32:25;3.53;;;1.88;;
20336;SDS011;10326;53.660;10.200;2023-08-24T12:41:44;2.20;;;2.00;;
20336;SDS011;10326;53.660;10.200;2023-08-24T12:44:11;4.10;;;1.90;;
20336;SDS011;10326;53.660;10.200;2023-08-24T12:46:52;3.72;;;1.88;;
20336;SDS011;10326;53.660;10.200;2023-08-24T12:53:28;5.82;;;1.92;;
20336;SDS011;10326;53.660;10.200;2023-08-24T12:55:56;3.08;;;1.90;;
20336;SDS011;10326;53.660;10.200;2023-08-24T12:58:25;2.17;;;1.85;;
20336;SDS011;10326;53.660;10.200;2023-08-24T13:00:52;2.50;;;2.00;;
20336;SDS011;10326;53.660;10.200;2023-08-24T13:03:20;2.78;;;1.58;;
20336;SDS011;10326;53.660;10.200;2023-08-24T13:13:59;2.65;;;2.08;;
20336;SDS011;10326;53.660;10.200;2023-08-24T13:16:26;2.58;;;1.80;;
20336;SDS011;10326;53.660;10.200;2023-08-24T13:18:57;2.08;;;1.85;;
20336;SDS011;10326;53.660;10.200;2023-08-24T13:21:24;2.00;;;1.80;;
20336;SDS011;10326;53.660;10.200;2023-08-24T13:23:52;2.10;;;1.80;;
20336;SDS011;10326;53.660;10.200;2023-08-24T13:26:20;3.53;;;1.90;;
20336;SDS011;10326;53.660;10.200;2023-08-24T13:32:41;1.92;;;1.77;;
20336;SDS011;10326;53.660;10.200;2023-08-24T13:35:09;2.00;;;1.70;;
20336;SDS011;10326;53.660;10.200;2023-08-24T13:41:50;3.10;;;1.90;;
20336;SDS011;10326;53.660;10.200;2023-08-24T13:47:39;3.15;;;1.95;;
20336;SDS011;10326;53.660;10.200;2023-08-24T13:58:14;2.10;;;1.83;;
20336;SDS011;10326;53.660;10.200;2023-08-24T14:00:50;3.20;;;2.08;;
20336;SDS011;10326;53.660;10.200;2023-08-24T14:03:45;3.08;;;1.83;;
20336;SDS011;10326;53.660;10.200;2023-08-24T14:06:15;3.13;;;1.70;;
20336;SDS011;10326;53.660;10.200;2023-08-24T14:08:47;2.45;;;1.80;;
20336;SDS011;10326;53.660;10.200;2023-08-24T14:11:14;1.92;;;1.77;;
20336;SDS011;10326;53.660;10.200;2023-08-24T14:13:41;2.03;;;1.83;;
20336;SDS011;10326;53.660;10.200;2023-08-24T14:16:09;4.80;;;2.08;;
20336;SDS011;10326;53.660;10.200;2023-08-24T14:18:36;2.17;;;1.90;;
20336;SDS011;10326;53.660;10.200;2023-08-24T14:21:14;3.83;;;2.10;;
20336;SDS011;10326;53.660;10.200;2023-08-24T14:24:08;3.45;;;1.75;;
20336;SDS011;10326;53.660;10.200;2023-08-24T14:26:36;3.05;;;1.80;;
20336;SDS011;10326;53.660;10.200;2023-08-24T14:29:07;3.25;;;1.90;;
20336;SDS011;10326;53.660;10.200;2023-08-24T14:31:51;2.05;;;1.80;;
20336;SDS011;10326;53.660;10.200;2023-08-24T14:34:30;2.15;;;1.95;;
20336;SDS011;10326;53.660;10.200;2023-08-24T14:36:59;3.70;;;1.65;;
20336;SDS011;10326;53.660;10.200;2023-08-24T14:39:31;2.97;;;1.77;;
20336;SDS011;10326;53.660;10.200;2023-08-24T14:42:26;2.63;;;1.60;;
20336;SDS011;10326;53.660;10.200;2023-08-24T14:45:06;2.80;;;1.88;;
20336;SDS011;10326;53.660;10.200;2023-08-24T14:47:34;3.22;;;1.70;;
20336;SDS011;10326;53.660;10.200;2023-08-24T14:50:04;21.17;;;6.80;;
20336;SDS011;10326;53.660;10.200;2023-08-24T14:56:24;2.95;;;1.80;;
20336;SDS011;10326;53.660;10.200;2023-08-24T14:58:51;2.17;;;1.98;;
20336;SDS011;10326;53.660;10.200;2023-08-24T15:01:19;2.58;;;1.95;;
20336;SDS011;10326;53.660;10.200;2023-08-24T15:08:36;2.05;;;1.73;;
20336;SDS011;10326;53.660;10.200;2023-08-24T15:11:03;1.70;;;1.60;;
20336;SDS011;10326;53.660;10.200;2023-08-24T15:23:21;2.75;;;1.65;;
20336;SDS011;10326;53.660;10.200;2023-08-24T15:28:24;2.28;;;1.63;;
20336;SDS011;10326;53.660;10.200;2023-08-24T15:30:52;4.22;;;2.20;;
20336;SDS011;10326;53.660;10.200;2023-08-24T15:33:25;3.83;;;2.00;;
20336;SDS011;10326;53.660;10.200;2023-08-24T15:35:52;8.18;;;2.10;;
20336;SDS011;10326;53.660;10.200;2023-08-24T15:45:38;2.40;;;1.83;;
20336;SDS011;10326;53.660;10.200;2023-08-24T15:48:09;2.97;;;1.98;;
20336;SDS011;10326;53.660;10.200;2023-08-24T15:50:37;2.15;;;1.90;;
20336;SDS011;10326;53.660;10.200;2023-08-24T15:57:13;3.65;;;1.90;;
20336;SDS011;10326;53.660;10.200;2023-08-24T15:59:41;3.42;;;2.00;;
20336;SDS011;10326;53.660;10.200;2023-08-24T16:10:40;4.22;;;2.50;;
20336;SDS011;10326;53.660;10.200;2023-08-24T16:19:14;14.00;;;8.18;;
20336;SDS011;10326;53.660;10.200;2023-08-24T16:20:41;3.55;;;3.25;;
20336;SDS011;10326;53.660;10.200;2023-08-24T16:23:09;4.70;;;3.22;;
20336;SDS011;10326;53.660;10.200;2023-08-24T16:38:43;3.97;;;2.40;;
20336;SDS011;10326;53.660;10.200;2023-08-24T16:41:10;5.30;;;2.90;;
20336;SDS011;10326;53.660;10.200;2023-08-24T16:43:44;6.10;;;2.53;;
20336;SDS011;10326;53.660;10.200;2023-08-24T16:47:36;4.00;;;2.05;;
20336;SDS011;10326;53.660;10.200;2023-08-24T16:49:56;3.95;;;2.70;;
20336;SDS011;10326;53.660;10.200;2023-08-24T16:52:23;16.02;;;5.32;;
20336;SDS011;10326;53.660;10.200;2023-08-24T16:54:52;9.68;;;4.25;;
20336;SDS011;10326;53.660;10.200;2023-08-24T16:57:19;3.30;;;2.33;;
20336;SDS011;10326;53.660;10.200;2023-08-24T16:59:48;3.20;;;1.90;;
20336;SDS011;10326;53.660;10.200;2023-08-24T17:02:15;3.83;;;2.50;;
20336;SDS011;10326;53.660;10.200;2023-08-24T17:04:42;4.55;;;2.15;;
20336;SDS011;10326;53.660;10.200;2023-08-24T17:07:10;3.25;;;2.20;;
20336;SDS011;10326;53.660;10.200;2023-08-24T17:09:37;3.75;;;2.05;;
20336;SDS011;10326;53.660;10.200;2023-08-24T17:12:10;3.67;;;2.30;;
20336;SDS011;10326;53.660;10.200;2023-08-24T17:15:20;3.90;;;2.17;;
20336;SDS011;10326;53.660;10.200;2023-08-24T17:17:48;3.50;;;2.25;;
20336;SDS011;10326;53.660;10.200;2023-08-24T17:23:26;2.70;;;2.20;;
20336;SDS011;10326;53.660;10.200;2023-08-24T17:25:53;3.10;;;2.00;;
20336;SDS011;10326;53.660;10.200;2023-08-24T17:32:33;2.60;;;2.25;;
20336;SDS011;10326;53.660;10.200;2023-08-24T17:35:08;7.10;;;2.70;;
20336;SDS011;10326;53.660;10.200;2023-08-24T17:37:37;6.07;;;2.50;;
20336;SDS011;10326;53.660;10.200;2023-08-24T17:40:05;7.05;;;2.20;;
20336;SDS011;10326;53.660;10.200;2023-08-24T17:42:36;3.72;;;2.10;;
20336;SDS011;10326;53.660;10.200;2023-08-24T17:45:05;3.60;;;2.65;;
20336;SDS011;10326;53.660;10.200;2023-08-24T17:47:35;4.28;;;2.67;;
20336;SDS011;10326;53.660;10.200;2023-08-24T17:50:03;2.70;;;2.20;;
20336;SDS011;10326;53.660;10.200;2023-08-24T17:52:33;3.08;;;2.40;;
20336;SDS011;10326;53.660;10.200;2023-08-24T17:55:01;3.78;;;2.25;;
20336;SDS011;10326;53.660;10.200;2023-08-24T17:57:36;4.28;;;2.53;;
20336;SDS011;10326;53.660;10.200;2023-08-24T18:00:15;3.97;;;2.22;;
20336;SDS011;10326;53.660;10.200;2023-08-24T18:02:46;5.72;;;2.38;;
20336;SDS011;10326;53.660;10.200;2023-08-24T18:05:14;2.78;;;2.20;;
20336;SDS011;10326;53.660;10.200;2023-08-24T18:07:41;4.60;;;2.67;;
20336;SDS011;10326;53.660;10.200;2023-08-24T18:10:08;5.35;;;3.05;;
20336;SDS011;10326;53.660;10.200;2023-08-24T18:12:36;3.10;;;2.22;;
20336;SDS011;10326;53.660;10.200;2023-08-24T18:15:03;3.60;;;2.22;;
20336;SDS011;10326;53.660;10.200;2023-08-24T18:17:31;2.38;;;2.17;;
20336;SDS011;10326;53.660;10.200;2023-08-24T18:20:00;3.90;;;2.00;;
20336;SDS011;10326;53.660;10.200;2023-08-24T18:22:28;9.95;;;4.20;;
20336;SDS011;10326;53.660;10.200;2023-08-24T18:24:56;11.77;;;4.78;;
20336;SDS011;10326;53.660;10.200;2023-08-24T18:27:25;8.45;;;3.50;;
20336;SDS011;10326;53.660;10.200;2023-08-24T18:29:52;5.35;;;3.08;;
20336;SDS011;10326;53.660;10.200;2023-08-24T18:32:20;5.63;;;2.78;;
20336;SDS011;10326;53.660;10.200;2023-08-24T18:34:47;3.00;;;2.40;;
20336;SDS011;10326;53.660;10.200;2023-08-24T18:37:16;4.25;;;2.45;;
20336;SDS011;10326;53.660;10.200;2023-08-24T18:39:43;3.78;;;2.33;;
20336;SDS011;10326;53.660;10.200;2023-08-24T18:42:12;3.67;;;2.25;;
20336;SDS011;10326;53.660;10.200;2023-08-24T18:44:45;3.97;;;2.42;;
20336;SDS011;10326;53.660;10.200;2023-08-24T18:47:13;5.20;;;2.83;;
20336;SDS011;10326;53.660;10.200;2023-08-24T18:49:40;4.82;;;2.65;;
20336;SDS011;10326;53.660;10.200;2023-08-24T18:52:08;3.72;;;2.70;;
20336;SDS011;10326;53.660;10.200;2023-08-24T18:54:36;3.38;;;2.60;;
20336;SDS011;10326;53.660;10.200;2023-08-24T18:57:06;4.32;;;2.50;;
20336;SDS011;10326;53.660;10.200;2023-08-24T18:59:33;2.60;;;2.40;;
20336;SDS011;10326;53.660;10.200;2023-08-24T19:02:00;4.32;;;2.42;;
20336;SDS011;10326;53.660;10.200;2023-08-24T19:04:28;4.47;;;2.97;;
20336;SDS011;10326;53.660;10.200;2023-08-24T19:06:57;2.47;;;2.28;;
20336;SDS011;10326;53.660;10.200;2023-08-24T19:09:26;3.30;;;2.45;;
20336;SDS011;10326;53.660;10.200;2023-08-24T19:11:55;2.97;;;2.33;;
20336;SDS011;10326;53.660;10.200;2023-08-24T19:14:23;4.47;;;2.72;;
20336;SDS011;10326;53.660;10.200;2023-08-24T19:16:52;2.97;;;2.10;;
20336;SDS011;10326;53.660;10.200;2023-08-24T19:19:21;6.95;;;2.30;;
20336;SDS011;10326;53.660;10.200;2023-08-24T19:21:49;2.05;;;1.90;;
20336;SDS011;10326;53.660;10.200;2023-08-24T19:24:16;2.92;;;1.90;;
20336;SDS011;10326;53.660;10.200;2023-08-24T19:26:44;3.50;;;1.92;;
20336;SDS011;10326;53.660;10.200;2023-08-24T19:29:13;3.28;;;1.85;;
20336;SDS011;10326;53.660;10.200;2023-08-24T19:45:16;6.25;;;4.60;;
20336;SDS011;10326;53.660;10.200;2023-08-24T19:50:58;3.20;;;1.67;;
20336;SDS011;10326;53.660;10.200;2023-08-24T19:53:26;6.95;;;1.80;;
20336;SDS011;10326;53.660;10.200;2023-08-24T19:55:58;2.58;;;1.58;;
20336;SDS011;10326;53.660;10.200;2023-08-24T20:05:20;15.88;;;2.38;;
20336;SDS011;10326;53.660;10.200;2023-08-24T20:11:36;5.32;;;1.50;;
20336;SDS011;10326;53.660;10.200;2023-08-24T20:14:03;2.38;;;1.70;;
20336;SDS011;10326;53.660;10.200;2023-08-24T20:16:31;3.05;;;1.88;;
20336;SDS011;10326;53.660;10.200;2023-08-24T20:18:58;2.63;;;1.50;;
20336;SDS011;10326;53.660;10.200;2023-08-24T20:21:25;2.33;;;1.67;;
20336;SDS011;10326;53.660;10.200;2023-08-24T20:23:55;1.80;;;1.70;;
20336;SDS011;10326;53.660;10.200;2023-08-24T20:26:22;2.00;;;1.58;;
20336;SDS011;10326;53.660;10.200;2023-08-24T20:28:51;4.05;;;1.88;;
20336;SDS011;10326;53.660;10.200;2023-08-24T20:31:18;2.65;;;1.95;;
20336;SDS011;10326;53.660;10.200;2023-08-24T20:33:45;2.78;;;1.70;;
20336;SDS011;10326;53.660;10.200;2023-08-24T20:36:13;6.63;;;2.40;;
20336;SDS011;10326;53.660;10.200;2023-08-24T20:38:40;2.72;;;1.80;;
20336;SDS011;10326;53.660;10.200;2023-08-24T20:41:07;2.28;;;1.73;;
20336;SDS011;10326;53.660;10.200;2023-08-24T20:43:35;2.78;;;1.75;;
20336;SDS011;10326;53.660;10.200;2023-08-24T20:46:04;1.92;;;1.70;;
20336;SDS011;10326;53.660;10.200;2023-08-24T20:48:31;4.82;;;1.90;;
20336;SDS011;10326;53.660;10.200;2023-08-24T20:50:58;5.55;;;1.63;;
20336;SDS011;10326;53.660;10.200;2023-08-24T20:53:28;3.42;;;1.90;;
20336;SDS011;10326;53.660;10.200;2023-08-24T20:55:55;3.55;;;1.80;;
20336;SDS011;10326;53.660;10.200;2023-08-24T20:58:22;4.55;;;1.88;;
20336;SDS011;10326;53.660;10.200;2023-08-24T21:00:49;4.40;;;2.40;;